sensor_id;sensor_type;location;lat;lon;timestamp;P1;durP1;ratioP1;P2;durP2;ratioP2
60426;SDS011;46274;47.168;27.604;2024-03-23T00:58:18;57.13;;;24.43;;
60426;SDS011;46274;47.168;27.604;2024-03-23T01:04:19;51.03;;;21.73;;
60426;SDS011;46274;47.168;27.604;2024-03-23T01:10:20;37.77;;;15.80;;
60426;SDS011;46274;47.168;27.604;2024-03-23T01:16:21;40.80;;;15.87;;
60426;SDS011;46274;47.168;27.604;2024-03-23T01:22:22;33.37;;;15.57;;
60426;SDS011;46274;47.168;27.604;2024-03-23T01:28:24;36.73;;;15.17;;
60426;SDS011;46274;47.168;27.604;2024-03-23T01:34:25;206.33;;;80.60;;
60426;SDS011;46274;47.168;27.604;2024-03-23T01:40:27;99.37;;;42.70;;
60426;SDS011;46274;47.168;27.604;2024-03-23T01:46:31;47.20;;;20.23;;
60426;SDS011;46274;47.168;27.604;2024-03-23T01:52:33;38.77;;;17.00;;
60426;SDS011;46274;47.168;27.604;2024-03-23T01:58:34;39.80;;;17.57;;
60426;SDS011;46274;47.168;27.604;2024-03-23T02:04:37;35.50;;;15.43;;
60426;SDS011;46274;47.168;27.604;2024-03-23T02:10:38;41.27;;;16.40;;
60426;SDS011;46274;47.168;27.604;2024-03-23T02:16:39;38.30;;;15.93;;
60426;SDS011;46274;47.168;27.604;2024-03-23T02:22:40;40.83;;;17.80;;
60426;SDS011;46274;47.168;27.604;2024-03-23T02:28:41;38.73;;;17.63;;
60426;SDS011;46274;47.168;27.604;2024-03-23T02:34:42;39.20;;;17.57;;
60426;SDS011;46274;47.168;27.604;2024-03-23T02:40:43;38.40;;;17.70;;
60426;SDS011;46274;47.168;27.604;2024-03-23T02:46:44;38.57;;;16.13;;
60426;SDS011;46274;47.168;27.604;2024-03-23T02:52:45;37.27;;;14.00;;
60426;SDS011;46274;47.168;27.604;2024-03-23T02:58:46;30.77;;;14.80;;
60426;SDS011;46274;47.168;27.604;2024-03-23T03:04:47;28.00;;;13.43;;
60426;SDS011;46274;47.168;27.604;2024-03-23T03:10:48;28.83;;;13.70;;
60426;SDS011;46274;47.168;27.604;2024-03-23T03:16:50;29.27;;;13.30;;
60426;SDS011;46274;47.168;27.604;2024-03-23T03:22:51;38.23;;;14.23;;
60426;SDS011;46274;47.168;27.604;2024-03-23T03:28:57;30.57;;;13.73;;
60426;SDS011;46274;47.168;27.604;2024-03-23T03:34:58;25.40;;;12.53;;
60426;SDS011;46274;47.168;27.604;2024-03-23T03:40:59;32.37;;;14.97;;
60426;SDS011;46274;47.168;27.604;2024-03-23T03:47:00;35.03;;;16.03;;
60426;SDS011;46274;47.168;27.604;2024-03-23T03:53:01;48.57;;;16.93;;
60426;SDS011;46274;47.168;27.604;2024-03-23T03:59:02;40.30;;;16.93;;
60426;SDS011;46274;47.168;27.604;2024-03-23T04:05:05;41.10;;;15.83;;
60426;SDS011;46274;47.168;27.604;2024-03-23T04:11:08;53.13;;;23.50;;
60426;SDS011;46274;47.168;27.604;2024-03-23T04:17:09;42.53;;;16.00;;
60426;SDS011;46274;47.168;27.604;2024-03-23T04:23:10;44.57;;;16.10;;
60426;SDS011;46274;47.168;27.604;2024-03-23T04:29:11;53.10;;;19.17;;
60426;SDS011;46274;47.168;27.604;2024-03-23T04:35:13;46.57;;;17.87;;
60426;SDS011;46274;47.168;27.604;2024-03-23T04:41:13;38.60;;;17.50;;
60426;SDS011;46274;47.168;27.604;2024-03-23T04:47:15;62.23;;;19.00;;
60426;SDS011;46274;47.168;27.604;2024-03-23T04:53:16;52.40;;;22.37;;
60426;SDS011;46274;47.168;27.604;2024-03-23T04:59:17;55.30;;;20.97;;
60426;SDS011;46274;47.168;27.604;2024-03-23T05:05:18;42.67;;;18.50;;
60426;SDS011;46274;47.168;27.604;2024-03-23T05:11:19;42.40;;;18.27;;
60426;SDS011;46274;47.168;27.604;2024-03-23T05:17:21;47.53;;;23.00;;
60426;SDS011;46274;47.168;27.604;2024-03-23T05:23:22;37.10;;;17.37;;
60426;SDS011;46274;47.168;27.604;2024-03-23T05:29:23;39.70;;;16.17;;
60426;SDS011;46274;47.168;27.604;2024-03-23T05:35:27;44.97;;;16.93;;
60426;SDS011;46274;47.168;27.604;2024-03-23T05:41:28;67.30;;;32.43;;
60426;SDS011;46274;47.168;27.604;2024-03-23T05:47:29;29.83;;;14.83;;
60426;SDS011;46274;47.168;27.604;2024-03-23T05:53:32;47.13;;;20.53;;
60426;SDS011;46274;47.168;27.604;2024-03-23T05:59:34;36.30;;;17.87;;
60426;SDS011;46274;47.168;27.604;2024-03-23T06:05:35;33.63;;;15.67;;
60426;SDS011;46274;47.168;27.604;2024-03-23T06:11:39;35.63;;;15.83;;
60426;SDS011;46274;47.168;27.604;2024-03-23T06:17:41;40.80;;;15.73;;
60426;SDS011;46274;47.168;27.604;2024-03-23T06:23:42;31.90;;;15.43;;
60426;SDS011;46274;47.168;27.604;2024-03-23T06:29:43;38.60;;;15.60;;
60426;SDS011;46274;47.168;27.604;2024-03-23T06:35:49;34.23;;;15.70;;
60426;SDS011;46274;47.168;27.604;2024-03-23T06:41:53;34.17;;;15.97;;
60426;SDS011;46274;47.168;27.604;2024-03-23T06:47:57;33.77;;;15.23;;
60426;SDS011;46274;47.168;27.604;2024-03-23T06:53:58;37.00;;;17.00;;
60426;SDS011;46274;47.168;27.604;2024-03-23T06:59:59;37.93;;;17.73;;
60426;SDS011;46274;47.168;27.604;2024-03-23T07:06:00;41.70;;;15.57;;
60426;SDS011;46274;47.168;27.604;2024-03-23T07:12:01;34.30;;;16.80;;
60426;SDS011;46274;47.168;27.604;2024-03-23T07:18:05;34.60;;;16.23;;
60426;SDS011;46274;47.168;27.604;2024-03-23T07:24:06;36.00;;;16.63;;
60426;SDS011;46274;47.168;27.604;2024-03-23T07:30:10;33.33;;;16.53;;
60426;SDS011;46274;47.168;27.604;2024-03-23T07:36:11;41.20;;;16.10;;
60426;SDS011;46274;47.168;27.604;2024-03-23T07:42:12;36.53;;;14.80;;
60426;SDS011;46274;47.168;27.604;2024-03-23T07:48:13;35.20;;;15.00;;
60426;SDS011;46274;47.168;27.604;2024-03-23T07:54:23;24.63;;;11.33;;
60426;SDS011;46274;47.168;27.604;2024-03-23T08:00:35;32.93;;;13.30;;
60426;SDS011;46274;47.168;27.604;2024-03-23T08:06:37;28.77;;;11.37;;
60426;SDS011;46274;47.168;27.604;2024-03-23T08:12:38;26.63;;;11.30;;
60426;SDS011;46274;47.168;27.604;2024-03-23T08:18:39;25.50;;;10.73;;
60426;SDS011;46274;47.168;27.604;2024-03-23T08:24:54;16.30;;;8.40;;
60426;SDS011;46274;47.168;27.604;2024-03-23T08:31:03;16.53;;;8.10;;
60426;SDS011;46274;47.168;27.604;2024-03-23T08:37:11;20.23;;;8.17;;
60426;SDS011;46274;47.168;27.604;2024-03-23T08:43:18;17.53;;;8.37;;
60426;SDS011;46274;47.168;27.604;2024-03-23T08:49:19;20.53;;;8.70;;
60426;SDS011;46274;47.168;27.604;2024-03-23T08:55:23;16.47;;;8.30;;
60426;SDS011;46274;47.168;27.604;2024-03-23T09:01:24;19.97;;;8.63;;
60426;SDS011;46274;47.168;27.604;2024-03-23T09:07:26;15.27;;;7.60;;
60426;SDS011;46274;47.168;27.604;2024-03-23T09:13:27;18.67;;;7.77;;
60426;SDS011;46274;47.168;27.604;2024-03-23T09:19:32;16.40;;;7.83;;
60426;SDS011;46274;47.168;27.604;2024-03-23T09:25:40;15.07;;;6.93;;
60426;SDS011;46274;47.168;27.604;2024-03-23T09:31:42;23.10;;;10.03;;
60426;SDS011;46274;47.168;27.604;2024-03-23T09:37:52;16.17;;;9.03;;
60426;SDS011;46274;47.168;27.604;2024-03-23T09:44:09;21.87;;;8.50;;
60426;SDS011;46274;47.168;27.604;2024-03-23T09:50:34;17.30;;;7.83;;
60426;SDS011;46274;47.168;27.604;2024-03-23T09:56:38;13.77;;;7.70;;
60426;SDS011;46274;47.168;27.604;2024-03-23T10:02:40;14.37;;;7.70;;
60426;SDS011;46274;47.168;27.604;2024-03-23T10:08:59;14.47;;;7.50;;
60426;SDS011;46274;47.168;27.604;2024-03-23T10:15:00;17.00;;;7.90;;
60426;SDS011;46274;47.168;27.604;2024-03-23T10:21:11;14.17;;;7.33;;
60426;SDS011;46274;47.168;27.604;2024-03-23T10:27:21;12.00;;;7.47;;
60426;SDS011;46274;47.168;27.604;2024-03-23T10:33:46;23.07;;;9.60;;
60426;SDS011;46274;47.168;27.604;2024-03-23T10:40:21;20.13;;;10.33;;
60426;SDS011;46274;47.168;27.604;2024-03-23T10:46:40;18.93;;;7.80;;
60426;SDS011;46274;47.168;27.604;2024-03-23T11:06:41;15.80;;;8.53;;
60426;SDS011;46274;47.168;27.604;2024-03-23T11:19:34;17.20;;;8.73;;
60426;SDS011;46274;47.168;27.604;2024-03-23T11:25:49;18.07;;;9.53;;
60426;SDS011;46274;47.168;27.604;2024-03-23T11:32:23;16.53;;;8.67;;
60426;SDS011;46274;47.168;27.604;2024-03-23T11:38:25;16.53;;;7.57;;
60426;SDS011;46274;47.168;27.604;2024-03-23T11:45:21;16.42;;;8.57;;
60426;SDS011;46274;47.168;27.604;2024-03-23T11:51:50;16.33;;;7.93;;
60426;SDS011;46274;47.168;27.604;2024-03-23T11:58:01;14.13;;;7.70;;
60426;SDS011;46274;47.168;27.604;2024-03-23T12:04:05;21.70;;;7.53;;
60426;SDS011;46274;47.168;27.604;2024-03-23T12:10:32;20.63;;;8.40;;
60426;SDS011;46274;47.168;27.604;2024-03-23T12:17:07;16.27;;;7.60;;
60426;SDS011;46274;47.168;27.604;2024-03-23T12:30:39;17.27;;;7.72;;
60426;SDS011;46274;47.168;27.604;2024-03-23T12:37:26;13.52;;;7.07;;
60426;SDS011;46274;47.168;27.604;2024-03-23T12:44:25;15.82;;;7.15;;
60426;SDS011;46274;47.168;27.604;2024-03-23T12:51:14;18.67;;;7.47;;
60426;SDS011;46274;47.168;27.604;2024-03-23T13:05:17;16.15;;;6.40;;
60426;SDS011;46274;47.168;27.604;2024-03-23T13:12:05;15.70;;;7.13;;
60426;SDS011;46274;47.168;27.604;2024-03-23T13:25:06;11.73;;;6.50;;
60426;SDS011;46274;47.168;27.604;2024-03-23T13:31:52;13.60;;;7.38;;
60426;SDS011;46274;47.168;27.604;2024-03-23T13:39:09;18.90;;;9.63;;
60426;SDS011;46274;47.168;27.604;2024-03-23T13:45:38;16.98;;;7.30;;
60426;SDS011;46274;47.168;27.604;2024-03-23T14:08:10;14.27;;;7.95;;
60426;SDS011;46274;47.168;27.604;2024-03-23T14:14:35;17.85;;;6.57;;
60426;SDS011;46274;47.168;27.604;2024-03-23T14:34:49;8.23;;;4.95;;
60426;SDS011;46274;47.168;27.604;2024-03-23T14:41:45;14.52;;;5.97;;
60426;SDS011;46274;47.168;27.604;2024-03-23T14:55:41;11.57;;;6.25;;
60426;SDS011;46274;47.168;27.604;2024-03-23T15:01:52;10.68;;;6.40;;
60426;SDS011;46274;47.168;27.604;2024-03-23T15:15:11;16.95;;;8.52;;
60426;SDS011;46274;47.168;27.604;2024-03-23T15:28:18;22.03;;;8.60;;
60426;SDS011;46274;47.168;27.604;2024-03-23T15:34:20;19.15;;;7.57;;
60426;SDS011;46274;47.168;27.604;2024-03-23T15:40:42;16.52;;;7.78;;
60426;SDS011;46274;47.168;27.604;2024-03-23T15:47:06;19.27;;;8.23;;
60426;SDS011;46274;47.168;27.604;2024-03-23T15:59:51;21.83;;;10.43;;
60426;SDS011;46274;47.168;27.604;2024-03-23T16:06:26;20.13;;;10.03;;
60426;SDS011;46274;47.168;27.604;2024-03-23T16:13:00;23.13;;;8.87;;
60426;SDS011;46274;47.168;27.604;2024-03-23T16:19:59;15.33;;;7.90;;
60426;SDS011;46274;47.168;27.604;2024-03-23T16:26:45;21.33;;;7.97;;
60426;SDS011;46274;47.168;27.604;2024-03-23T16:32:56;22.37;;;8.27;;
60426;SDS011;46274;47.168;27.604;2024-03-23T16:39:32;26.57;;;11.27;;
60426;SDS011;46274;47.168;27.604;2024-03-23T16:45:56;35.97;;;14.23;;
60426;SDS011;46274;47.168;27.604;2024-03-23T16:52:26;34.43;;;17.07;;
60426;SDS011;46274;47.168;27.604;2024-03-23T16:58:52;32.13;;;14.47;;
60426;SDS011;46274;47.168;27.604;2024-03-23T17:05:09;30.17;;;12.70;;
60426;SDS011;46274;47.168;27.604;2024-03-23T17:11:38;31.80;;;12.63;;
60426;SDS011;46274;47.168;27.604;2024-03-23T17:17:58;37.13;;;16.00;;
60426;SDS011;46274;47.168;27.604;2024-03-23T17:38:29;31.27;;;13.07;;
60426;SDS011;46274;47.168;27.604;2024-03-23T17:51:37;27.87;;;11.53;;
60426;SDS011;46274;47.168;27.604;2024-03-23T17:58:10;22.90;;;10.63;;
60426;SDS011;46274;47.168;27.604;2024-03-23T18:17:54;22.43;;;10.47;;
60426;SDS011;46274;47.168;27.604;2024-03-23T18:24:18;26.93;;;11.00;;
60426;SDS011;46274;47.168;27.604;2024-03-23T18:30:56;21.70;;;9.77;;
60426;SDS011;46274;47.168;27.604;2024-03-23T18:44:02;27.03;;;11.50;;
60426;SDS011;46274;47.168;27.604;2024-03-23T18:50:46;24.23;;;11.47;;
60426;SDS011;46274;47.168;27.604;2024-03-23T18:57:00;22.97;;;10.10;;
60426;SDS011;46274;47.168;27.604;2024-03-23T19:10:03;23.13;;;11.67;;
60426;SDS011;46274;47.168;27.604;2024-03-23T19:16:37;19.13;;;9.57;;
60426;SDS011;46274;47.168;27.604;2024-03-23T19:22:53;25.90;;;11.30;;
60426;SDS011;46274;47.168;27.604;2024-03-23T19:28:58;18.27;;;10.67;;
60426;SDS011;46274;47.168;27.604;2024-03-23T19:35:09;26.33;;;13.30;;
60426;SDS011;46274;47.168;27.604;2024-03-23T19:41:33;25.53;;;12.63;;
60426;SDS011;46274;47.168;27.604;2024-03-23T19:47:41;29.93;;;12.60;;
60426;SDS011;46274;47.168;27.604;2024-03-23T19:53:50;33.40;;;14.80;;
60426;SDS011;46274;47.168;27.604;2024-03-23T19:59:57;35.57;;;14.43;;
60426;SDS011;46274;47.168;27.604;2024-03-23T20:06:08;40.67;;;18.60;;
60426;SDS011;46274;47.168;27.604;2024-03-23T20:12:31;45.20;;;23.17;;
60426;SDS011;46274;47.168;27.604;2024-03-23T20:18:44;34.30;;;17.30;;
60426;SDS011;46274;47.168;27.604;2024-03-23T20:24:58;30.27;;;14.70;;
60426;SDS011;46274;47.168;27.604;2024-03-23T20:31:02;29.93;;;15.03;;
60426;SDS011;46274;47.168;27.604;2024-03-23T20:37:21;41.40;;;19.90;;
60426;SDS011;46274;47.168;27.604;2024-03-23T20:43:22;32.10;;;14.33;;
60426;SDS011;46274;47.168;27.604;2024-03-23T20:49:30;28.63;;;13.00;;
60426;SDS011;46274;47.168;27.604;2024-03-23T20:55:40;31.73;;;14.07;;
60426;SDS011;46274;47.168;27.604;2024-03-23T21:01:56;45.30;;;19.50;;
60426;SDS011;46274;47.168;27.604;2024-03-23T21:08:05;47.03;;;19.30;;
60426;SDS011;46274;47.168;27.604;2024-03-23T21:14:26;31.93;;;13.90;;
60426;SDS011;46274;47.168;27.604;2024-03-23T21:20:42;27.30;;;12.00;;
60426;SDS011;46274;47.168;27.604;2024-03-23T21:26:58;31.07;;;13.70;;
60426;SDS011;46274;47.168;27.604;2024-03-23T21:33:16;28.43;;;10.00;;
60426;SDS011;46274;47.168;27.604;2024-03-23T21:39:42;19.37;;;10.73;;
60426;SDS011;46274;47.168;27.604;2024-03-23T21:46:05;15.93;;;7.80;;
60426;SDS011;46274;47.168;27.604;2024-03-23T21:52:14;18.87;;;7.93;;
60426;SDS011;46274;47.168;27.604;2024-03-23T21:58:34;18.37;;;8.27;;
60426;SDS011;46274;47.168;27.604;2024-03-23T22:04:52;20.80;;;8.70;;
60426;SDS011;46274;47.168;27.604;2024-03-23T22:11:02;19.57;;;8.73;;
60426;SDS011;46274;47.168;27.604;2024-03-23T22:17:03;17.30;;;8.17;;
60426;SDS011;46274;47.168;27.604;2024-03-23T22:23:15;21.57;;;9.37;;
60426;SDS011;46274;47.168;27.604;2024-03-23T22:29:18;19.53;;;10.13;;
60426;SDS011;46274;47.168;27.604;2024-03-23T22:35:31;26.47;;;12.00;;
60426;SDS011;46274;47.168;27.604;2024-03-23T22:41:35;21.63;;;10.83;;
60426;SDS011;46274;47.168;27.604;2024-03-23T22:47:36;22.90;;;11.13;;
60426;SDS011;46274;47.168;27.604;2024-03-23T22:53:54;23.87;;;11.40;;
60426;SDS011;46274;47.168;27.604;2024-03-23T23:00:20;25.27;;;10.87;;
60426;SDS011;46274;47.168;27.604;2024-03-23T23:06:22;22.33;;;10.50;;
60426;SDS011;46274;47.168;27.604;2024-03-23T23:12:31;19.20;;;9.57;;
60426;SDS011;46274;47.168;27.604;2024-03-23T23:18:33;21.83;;;10.40;;
60426;SDS011;46274;47.168;27.604;2024-03-23T23:24:35;17.67;;;9.80;;
60426;SDS011;46274;47.168;27.604;2024-03-23T23:30:57;17.83;;;8.73;;
60426;SDS011;46274;47.168;27.604;2024-03-23T23:37:02;18.70;;;10.27;;
60426;SDS011;46274;47.168;27.604;2024-03-23T23:43:10;18.17;;;9.67;;
60426;SDS011;46274;47.168;27.604;2024-03-23T23:49:14;14.83;;;8.10;;
60426;SDS011;46274;47.168;27.604;2024-03-23T23:55:27;15.30;;;7.40;;
